Time;durP1;ratioP1;P1;durP2;ratioP2;P2;SDS_P1;SDS_P2;PMS_P1;PMS_P2;Temp;Humidity;BMP_temperature;BMP_pressure;BME280_temperature;BME280_humidity;BME280_pressure;Samples;Min_cycle;Max_cycle;Signal;HPM_P1;HPM_P2
2022/03/10 00:02:09;;;;;;;12.37;6.17;;;4.40;66.40;;;;;;4954981;28;20564;-70
2022/03/10 00:04:36;;;;;;;10.27;5.82;;;4.40;66.50;;;;;;4948402;28;20022;-70
2022/03/10 00:07:02;;;;;;;;;;;4.40;66.50;;;;;;4948800;28;20094;-70
2022/03/10 00:09:29;;;;;;;9.38;5.53;;;4.40;66.50;;;;;;4953682;28;19910;-69
2022/03/10 00:11:55;;;;;;;11.80;6.18;;;4.30;66.50;;;;;;4954151;28;20054;-69
2022/03/10 00:14:20;;;;;;;10.60;6.10;;;4.30;66.50;;;;;;4949428;28;20492;-71
2022/03/10 00:16:46;;;;;;;10.03;5.77;;;4.40;66.70;;;;;;4954812;28;20023;-69
2022/03/10 00:19:12;;;;;;;10.83;6.63;;;4.40;66.70;;;;;;4952103;28;20027;-70
2022/03/10 00:21:41;;;;;;;10.17;5.47;;;4.30;66.90;;;;;;4935095;28;20186;-73
2022/03/10 00:24:06;;;;;;;10.73;5.93;;;4.30;66.80;;;;;;4946919;28;20110;-76
2022/03/10 00:26:32;;;;;;;14.17;6.20;;;4.30;67.00;;;;;;4946210;28;20027;-78
2022/03/10 00:28:58;;;;;;;9.70;6.63;;;4.20;67.10;;;;;;4955911;28;20031;-74
2022/03/10 00:31:23;;;;;;;10.57;5.53;;;4.20;67.30;;;;;;4969973;28;20126;-76
2022/03/10 00:33:49;;;;;;;12.97;6.43;;;4.20;67.40;;;;;;4952999;28;20040;-74
2022/03/10 00:36:15;;;;;;;11.03;6.27;;;4.20;67.50;;;;;;4975728;28;20142;-69
2022/03/10 00:38:41;;;;;;;13.87;6.63;;;4.20;67.50;;;;;;4952794;28;20033;-71
2022/03/10 00:41:08;;;;;;;16.08;6.13;;;4.10;67.70;;;;;;4951902;28;20485;-72
2022/03/10 00:43:33;;;;;;;12.57;6.03;;;4.10;67.90;;;;;;4954879;28;20035;-69
2022/03/10 00:45:59;;;;;;;13.33;6.43;;;4.10;68.20;;;;;;4955349;28;20073;-70
2022/03/10 00:48:25;;;;;;;11.23;6.40;;;4.00;68.30;;;;;;4957746;28;20043;-70
2022/03/10 00:50:50;;;;;;;11.90;6.80;;;4.00;68.30;;;;;;4942112;28;20026;-70
2022/03/10 00:53:16;;;;;;;11.43;6.03;;;4.00;68.50;;;;;;4942228;28;20047;-72
2022/03/10 00:55:42;;;;;;;12.43;6.73;;;3.90;68.60;;;;;;4942439;28;20027;-71
2022/03/10 00:58:07;;;;;;;12.10;6.30;;;3.90;68.70;;;;;;4942611;28;20022;-72
2022/03/10 01:00:33;;;;;;;9.77;6.17;;;3.90;68.80;;;;;;4945941;28;20031;-71
2022/03/10 01:02:59;;;;;;;11.43;6.30;;;3.90;68.90;;;;;;4959296;28;20015;-69
2022/03/10 01:05:25;;;;;;;16.77;7.20;;;3.90;69.00;;;;;;4950824;28;20027;-69
2022/03/10 01:07:51;;;;;;;11.90;6.77;;;3.90;69.10;;;;;;4953401;28;20045;-70
2022/03/10 01:10:18;;;;;;;13.10;6.60;;;3.90;69.00;;;;;;4947887;28;20026;-74
2022/03/10 01:12:45;;;;;;;;;;;3.90;69.20;;;;;;4952830;28;20022;-69
2022/03/10 01:15:19;;;;;;;10.57;5.88;;;3.80;69.10;;;;;;4953898;28;19906;-69
2022/03/10 01:17:46;;;;;;;10.45;5.60;;;3.80;69.40;;;;;;4949928;28;20570;-70
2022/03/10 01:20:13;;;;;;;10.52;6.53;;;3.80;69.40;;;;;;4952764;28;20158;-69
2022/03/10 01:22:38;;;;;;;14.63;7.63;;;3.80;69.40;;;;;;4938684;28;20062;-69
2022/03/10 01:25:07;;;;;;;14.73;6.90;;;3.80;69.50;;;;;;4947323;28;20109;-70
2022/03/10 01:27:33;;;;;;;11.68;6.53;;;3.70;69.70;;;;;;4947767;28;20022;-70
2022/03/10 01:29:59;;;;;;;15.00;6.20;;;3.70;69.90;;;;;;4944236;28;20019;-70
2022/03/10 01:32:25;;;;;;;11.07;6.70;;;3.70;69.90;;;;;;4958122;28;20050;-73
2022/03/10 01:34:51;;;;;;;11.30;6.38;;;3.70;70.10;;;;;;4944622;28;20030;-70
2022/03/10 01:37:18;;;;;;;12.32;6.78;;;3.60;70.20;;;;;;4938926;28;20027;-69
2022/03/10 01:39:43;;;;;;;10.25;6.22;;;3.60;70.40;;;;;;4943415;28;20054;-71
2022/03/10 01:42:09;;;;;;;14.03;7.30;;;3.60;70.60;;;;;;4948308;28;20106;-71
2022/03/10 01:44:35;;;;;;;10.30;5.97;;;3.60;70.80;;;;;;4968461;28;20023;-73
2022/03/10 01:47:01;;;;;;;12.67;6.07;;;3.50;70.90;;;;;;4943151;28;20036;-69
2022/03/10 01:49:27;;;;;;;13.70;7.30;;;3.50;71.10;;;;;;4946724;28;20023;-70
2022/03/10 01:51:53;;;;;;;12.95;7.25;;;3.50;71.30;;;;;;4939633;28;20019;-72
2022/03/10 01:54:20;;;;;;;11.57;7.03;;;3.50;71.40;;;;;;4940013;28;20022;-70
2022/03/10 01:56:47;;;;;;;12.73;6.43;;;3.50;71.40;;;;;;4944132;28;20037;-70
2022/03/10 01:59:14;;;;;;;11.80;7.10;;;3.50;71.60;;;;;;4956361;28;20038;-70
2022/03/10 02:01:40;;;;;;;15.50;7.65;;;3.50;71.60;;;;;;4941750;28;20370;-70
2022/03/10 02:04:06;;;;;;;13.17;7.10;;;3.50;71.70;;;;;;4948863;28;20031;-69
2022/03/10 02:06:32;;;;;;;12.85;6.80;;;3.50;71.80;;;;;;4944025;28;20485;-70
2022/03/10 02:11:43;;;;;;;14.65;7.28;;;3.40;71.80;;;;;;4945453;28;20084;-69
2022/03/10 02:19:37;;;;;;;12.13;7.10;;;3.40;72.10;;;;;;4950968;28;20708;-70
2022/03/10 02:22:11;;;;;;;15.43;6.60;;;3.40;72.30;;;;;;4949372;28;20011;-69
2022/03/10 02:24:38;;;;;;;14.23;6.93;;;3.40;72.40;;;;;;4938596;28;20030;-70
2022/03/10 02:27:21;;;;;;;15.38;7.32;;;3.40;72.40;;;;;;4949459;28;20026;-70
2022/03/10 02:29:49;;;;;;;13.02;7.18;;;3.40;72.50;;;;;;4938812;28;20081;-70
2022/03/10 02:32:16;;;;;;;15.13;7.22;;;3.40;72.50;;;;;;4941797;28;20449;-69
2022/03/10 02:34:43;;;;;;;14.10;6.82;;;3.40;72.60;;;;;;4952781;28;20033;-70
2022/03/10 02:37:10;;;;;;;13.45;7.43;;;3.40;72.60;;;;;;4948306;28;20536;-69
2022/03/10 02:39:36;;;;;;;12.07;6.07;;;3.40;72.70;;;;;;4946524;28;20106;-71
2022/03/10 02:42:02;;;;;;;13.80;6.95;;;3.40;72.70;;;;;;4949531;28;20026;-69
2022/03/10 02:44:28;;;;;;;18.35;7.28;;;3.40;72.80;;;;;;4951498;28;20632;-69
2022/03/10 02:46:54;;;;;;;15.37;7.47;;;3.40;72.90;;;;;;4948783;28;20042;-71
2022/03/10 02:49:21;;;;;;;13.60;6.53;;;3.40;72.90;;;;;;4955077;28;20042;-69
2022/03/10 02:51:46;;;;;;;13.93;7.35;;;3.40;73.00;;;;;;4946180;28;20046;-70
2022/03/10 02:54:12;;;;;;;13.80;7.60;;;3.30;73.00;;;;;;4950869;28;20063;-70
2022/03/10 02:56:38;;;;;;;14.83;6.80;;;3.30;73.10;;;;;;4944301;28;20377;-70
2022/03/10 02:59:04;;;;;;;13.13;7.23;;;3.30;73.30;;;;;;4940324;28;20035;-72
2022/03/10 03:01:31;;;;;;;12.15;6.50;;;3.30;73.30;;;;;;4950111;28;20019;-70
2022/03/10 03:03:56;;;;;;;;;;;3.30;73.40;;;;;;4969371;28;20481;-73
2022/03/10 03:06:22;;;;;;;10.77;6.28;;;3.30;73.30;;;;;;4954337;28;20004;-73
2022/03/10 03:08:48;;;;;;;15.60;7.27;;;3.30;73.30;;;;;;4940944;28;20185;-72
2022/03/10 03:11:14;;;;;;;13.47;6.87;;;3.30;73.30;;;;;;4950205;28;20062;-70
2022/03/10 03:13:40;;;;;;;13.32;7.05;;;3.30;73.50;;;;;;4939595;28;20448;-69
2022/03/10 03:16:05;;;;;;;12.83;6.33;;;3.30;73.50;;;;;;4946210;28;20031;-69
2022/03/10 03:18:31;;;;;;;13.87;6.87;;;3.30;73.50;;;;;;4946311;28;20031;-70
2022/03/10 03:20:57;;;;;;;10.67;6.87;;;3.30;73.60;;;;;;4947687;28;20022;-70
2022/03/10 03:23:23;;;;;;;13.93;7.35;;;3.20;73.50;;;;;;4944598;28;20101;-70
2022/03/10 03:25:50;;;;;;;15.40;6.97;;;3.20;73.70;;;;;;4951787;28;20754;-72
2022/03/10 03:28:17;;;;;;;15.50;7.22;;;3.20;73.90;;;;;;4960396;28;20307;-69
2022/03/10 03:30:43;;;;;;;13.60;7.13;;;3.20;74.00;;;;;;4944461;28;20802;-69
2022/03/10 03:33:09;;;;;;;13.35;6.50;;;3.20;74.10;;;;;;4939263;28;20793;-70
2022/03/10 03:35:35;;;;;;;12.47;6.60;;;3.20;74.20;;;;;;4938449;28;20032;-70
2022/03/10 03:38:03;;;;;;;11.43;6.50;;;3.10;74.30;;;;;;4948541;28;20034;-69
2022/03/10 03:40:28;;;;;;;12.50;6.45;;;3.10;74.30;;;;;;4954628;28;20023;-69
2022/03/10 03:42:54;;;;;;;13.77;6.47;;;3.10;74.50;;;;;;4940967;28;20554;-69
2022/03/10 03:45:20;;;;;;;19.33;6.93;;;3.10;74.60;;;;;;4952202;28;20031;-69
2022/03/10 03:47:45;;;;;;;11.00;6.60;;;3.10;74.70;;;;;;4949486;28;20077;-73
2022/03/10 03:50:12;;;;;;;12.40;7.20;;;3.10;74.70;;;;;;4945083;28;20154;-69
2022/03/10 03:52:37;;;;;;;17.02;7.32;;;3.10;74.90;;;;;;4954072;28;20031;-69
2022/03/10 03:55:03;;;;;;;15.33;7.23;;;3.10;75.00;;;;;;4942274;28;20057;-69
2022/03/10 03:57:29;;;;;;;13.52;6.65;;;3.10;75.00;;;;;;4944915;28;20023;-69
2022/03/10 03:59:55;;;;;;;14.47;6.60;;;3.00;75.00;;;;;;4944648;28;20051;-68
2022/03/10 04:02:20;;;;;;;12.77;6.77;;;3.00;75.20;;;;;;4942566;28;20028;-69
2022/03/10 04:04:46;;;;;;;12.30;6.20;;;3.00;75.20;;;;;;4950164;28;20082;-70
2022/03/10 04:07:12;;;;;;;13.83;6.77;;;3.00;75.20;;;;;;4951768;28;20037;-70
2022/03/10 04:09:41;;;;;;;12.30;6.67;;;3.00;75.20;;;;;;4947280;28;20791;-69
2022/03/10 04:12:07;;;;;;;13.82;6.55;;;3.00;75.40;;;;;;4939863;28;20067;-69
2022/03/10 04:14:32;;;;;;;12.97;7.27;;;3.00;75.40;;;;;;4947354;28;20026;-68
2022/03/10 04:16:58;;;;;;;12.03;6.37;;;3.20;75.80;;;;;;4955227;28;20016;-69
2022/03/10 04:19:24;;;;;;;14.60;7.03;;;2.90;75.80;;;;;;4942148;28;20049;-69
2022/03/10 04:21:49;;;;;;;13.93;6.60;;;2.90;75.80;;;;;;4943999;28;20065;-69
2022/03/10 04:24:15;;;;;;;13.03;6.50;;;2.90;75.90;;;;;;4952619;28;20106;-70
2022/03/10 04:26:42;;;;;;;11.50;6.83;;;2.90;75.90;;;;;;4950018;28;20068;-69
2022/03/10 04:29:08;;;;;;;13.05;6.43;;;2.90;76.00;;;;;;4955753;28;20100;-69
2022/03/10 04:31:33;;;;;;;15.67;7.87;;;2.90;76.20;;;;;;4957856;28;20476;-70
2022/03/10 04:33:59;;;;;;;12.43;6.67;;;2.80;76.20;;;;;;4973551;28;20420;-69
2022/03/10 04:36:25;;;;;;;14.87;7.10;;;2.90;76.40;;;;;;4945969;28;20154;-69
2022/03/10 04:38:51;;;;;;;10.40;6.10;;;2.90;77.00;;;;;;4957470;28;20061;-69
2022/03/10 04:41:17;;;;;;;14.87;6.90;;;2.80;76.50;;;;;;4952465;28;20349;-69
2022/03/10 04:43:42;;;;;;;12.97;7.33;;;2.80;76.60;;;;;;4948482;28;20031;-69
2022/03/10 04:46:08;;;;;;;13.47;6.83;;;2.80;76.70;;;;;;4958983;28;20733;-69
2022/03/10 04:48:34;;;;;;;14.70;6.70;;;2.80;76.90;;;;;;4946724;28;20035;-69
2022/03/10 04:51:00;;;;;;;14.03;6.93;;;2.80;76.90;;;;;;4942752;28;20150;-69
2022/03/10 04:53:26;;;;;;;15.57;6.87;;;2.80;77.00;;;;;;4952589;28;20034;-69
2022/03/10 04:55:52;;;;;;;13.88;6.93;;;2.80;77.10;;;;;;4948769;28;20298;-69
2022/03/10 04:58:18;;;;;;;13.67;6.30;;;2.80;77.10;;;;;;4940832;28;20736;-70
2022/03/10 05:00:43;;;;;;;11.53;6.23;;;2.80;77.30;;;;;;4968238;28;20106;-69
2022/03/10 05:03:09;;;;;;;13.17;6.67;;;2.80;77.30;;;;;;4953103;28;20031;-69
2022/03/10 05:05:35;;;;;;;13.03;7.07;;;2.80;77.50;;;;;;4945486;28;20492;-70
2022/03/10 05:08:00;;;;;;;14.40;6.53;;;2.70;77.40;;;;;;4952030;28;20041;-69
2022/03/10 05:10:26;;;;;;;10.90;6.17;;;2.70;77.70;;;;;;4953783;28;20015;-69
2022/03/10 05:12:54;;;;;;;12.70;6.83;;;2.70;77.90;;;;;;4943119;28;20041;-69
2022/03/10 05:15:21;;;;;;;12.65;6.45;;;2.70;78.00;;;;;;4943298;28;21472;-69
2022/03/10 05:17:48;;;;;;;12.18;6.38;;;2.70;78.10;;;;;;4946359;28;20027;-70
2022/03/10 05:20:13;;;;;;;15.50;7.10;;;2.70;78.20;;;;;;4960763;28;20374;-69
2022/03/10 05:22:47;;;;;;;13.27;6.70;;;2.70;78.70;;;;;;4940466;28;20042;-72
2022/03/10 05:25:14;;;;;;;13.73;6.95;;;2.70;78.30;;;;;;4952089;28;20034;-69
2022/03/10 05:27:42;;;;;;;13.75;6.82;;;2.80;78.40;;;;;;4953550;28;20038;-70
2022/03/10 05:30:09;;;;;;;13.15;6.22;;;2.90;78.20;;;;;;4947357;28;20102;-69
2022/03/10 05:32:35;;;;;;;13.93;6.88;;;3.00;77.70;;;;;;4953361;28;20031;-69
2022/03/10 05:35:01;;;;;;;13.77;7.40;;;3.20;77.20;;;;;;4949943;28;20062;-70
2022/03/10 05:37:27;;;;;;;12.10;6.78;;;3.50;76.50;;;;;;4949684;28;20106;-74
2022/03/10 05:39:53;;;;;;;12.63;6.50;;;3.70;75.60;;;;;;4940028;28;20069;-78
2022/03/10 05:42:18;;;;;;;16.40;7.23;;;4.00;74.70;;;;;;4952871;28;20026;-78
2022/03/10 05:44:44;;;;;;;13.20;6.73;;;4.40;73.60;;;;;;4939243;28;20026;-76
2022/03/10 05:47:10;;;;;;;12.60;6.57;;;4.70;72.70;;;;;;4961159;28;20027;-70
2022/03/10 05:49:39;;;;;;;14.00;6.87;;;5.10;71.60;;;;;;4950116;28;20019;-70
2022/03/10 05:52:05;;;;;;;14.10;7.40;;;5.50;70.00;;;;;;4949597;28;20023;-72
2022/03/10 05:54:32;;;;;;;14.88;7.57;;;5.60;68.90;;;;;;4949171;28;20081;-74
2022/03/10 05:56:57;;;;;;;12.88;6.63;;;5.90;68.30;;;;;;4941746;28;20030;-70
2022/03/10 05:59:23;;;;;;;12.13;7.27;;;6.20;67.50;;;;;;4941275;28;20058;-69
2022/03/10 06:01:49;;;;;;;13.43;7.53;;;6.60;66.30;;;;;;4944434;28;20030;-70
2022/03/10 06:04:15;;;;;;;13.20;7.13;;;7.10;64.80;;;;;;4941776;28;20035;-69
2022/03/10 06:06:43;;;;;;;12.43;6.57;;;7.70;63.60;;;;;;4956420;28;20085;-69
2022/03/10 06:09:09;;;;;;;12.52;6.90;;;8.10;62.00;;;;;;4951465;28;20766;-69
2022/03/10 06:11:35;;;;;;;12.07;7.35;;;8.30;60.60;;;;;;4966275;28;20561;-69
2022/03/10 06:14:01;;;;;;;14.43;7.53;;;8.60;60.10;;;;;;4940128;28;20055;-70
2022/03/10 06:16:27;;;;;;;14.90;7.73;;;9.00;59.30;;;;;;4954069;28;20023;-70
2022/03/10 06:18:54;;;;;;;11.20;6.40;;;9.70;58.60;;;;;;4942505;28;20037;-70
2022/03/10 06:21:21;;;;;;;13.57;8.10;;;10.30;56.80;;;;;;4941605;28;20035;-70
2022/03/10 06:23:48;;;;;;;12.52;7.38;;;10.70;55.40;;;;;;4937945;28;20448;-71
2022/03/10 06:26:14;;;;;;;13.02;7.00;;;10.80;54.50;;;;;;4946959;28;20705;-70
2022/03/10 06:28:40;;;;;;;13.30;7.78;;;10.70;53.90;;;;;;4953750;28;20015;-70
2022/03/10 06:31:09;;;;;;;12.68;7.60;;;10.70;53.60;;;;;;4944548;28;20126;-70
2022/03/10 06:33:36;;;;;;;11.90;7.60;;;10.50;53.30;;;;;;4941918;28;20018;-69
2022/03/10 06:36:03;;;;;;;13.45;8.25;;;10.00;54.00;;;;;;4941294;28;20018;-70
2022/03/10 06:38:29;;;;;;;12.25;7.43;;;9.50;55.10;;;;;;4952899;28;20035;-69
2022/03/10 06:40:54;;;;;;;14.13;7.75;;;9.20;56.30;;;;;;4936926;28;20098;-69
2022/03/10 06:43:20;;;;;;;13.70;8.60;;;9.10;56.60;;;;;;4938880;28;20035;-69
2022/03/10 06:45:46;;;;;;;13.30;7.47;;;8.90;57.20;;;;;;4946240;28;20488;-69
2022/03/10 06:48:11;;;;;;;14.07;8.13;;;8.70;57.60;;;;;;4946037;28;20035;-69
2022/03/10 06:50:37;;;;;;;13.10;7.47;;;8.50;58.40;;;;;;4937022;28;20029;-69
2022/03/10 06:53:04;;;;;;;14.10;7.82;;;8.30;58.80;;;;;;4935167;28;20480;-69
2022/03/10 06:55:29;;;;;;;14.40;7.78;;;8.10;59.30;;;;;;4952498;28;20059;-69
2022/03/10 06:57:55;;;;;;;15.53;8.17;;;8.00;59.60;;;;;;4950719;28;20114;-69
2022/03/10 07:00:23;;;;;;;15.73;7.90;;;7.90;59.90;;;;;;4962142;28;20796;-69
2022/03/10 07:02:49;;;;;;;16.27;8.13;;;7.70;60.50;;;;;;4949854;28;20118;-69
2022/03/10 07:05:15;;;;;;;14.68;7.75;;;7.60;60.90;;;;;;4937301;28;20050;-70
2022/03/10 07:07:40;;;;;;;14.10;8.07;;;7.50;61.40;;;;;;4945116;28;20114;-69
2022/03/10 07:10:07;;;;;;;15.73;8.53;;;7.40;61.90;;;;;;4950581;28;20046;-69
2022/03/10 07:12:39;;;;;;;16.63;8.88;;;7.20;62.90;;;;;;4953163;28;20031;-69
2022/03/10 07:15:06;;;;;;;17.95;8.77;;;7.10;63.10;;;;;;4944994;28;20027;-70
2022/03/10 07:17:31;;;;;;;17.17;8.57;;;6.90;64.00;;;;;;4949467;28;20787;-69
2022/03/10 07:19:57;;;;;;;15.53;8.77;;;6.90;64.40;;;;;;4950153;28;20022;-70
2022/03/10 07:22:23;;;;;;;15.63;8.70;;;7.00;64.30;;;;;;4947496;28;20019;-69
2022/03/10 07:24:49;;;;;;;15.20;9.03;;;7.30;64.00;;;;;;4941959;28;20297;-69
2022/03/10 07:27:15;;;;;;;15.32;8.65;;;7.60;63.20;;;;;;4942324;28;20023;-69
2022/03/10 07:29:41;;;;;;;13.33;8.03;;;7.90;62.40;;;;;;4952313;28;20031;-69
2022/03/10 07:32:07;;;;;;;17.37;9.27;;;7.90;62.30;;;;;;4944207;28;20408;-69
2022/03/10 07:34:32;;;;;;;15.77;9.30;;;7.80;62.50;;;;;;4951924;28;20026;-69
2022/03/10 07:36:58;;;;;;;15.90;8.30;;;7.90;62.60;;;;;;4953045;28;20262;-69
2022/03/10 07:39:24;;;;;;;16.73;8.83;;;7.80;62.70;;;;;;4949783;28;20030;-69
2022/03/10 07:41:50;;;;;;;14.33;8.53;;;7.80;63.20;;;;;;4946326;28;20023;-69
2022/03/10 07:44:15;;;;;;;15.93;9.27;;;7.80;63.20;;;;;;4942878;28;20019;-69
2022/03/10 07:46:41;;;;;;;15.67;9.93;;;7.70;63.30;;;;;;4959638;28;20030;-69
2022/03/10 07:49:08;;;;;;;17.93;10.07;;;7.70;63.90;;;;;;4944324;28;20171;-69
2022/03/10 07:51:34;;;;;;;15.98;9.80;;;7.60;64.40;;;;;;4950259;28;20026;-69
2022/03/10 07:54:00;;;;;;;18.00;10.23;;;7.70;64.20;;;;;;4938179;28;20023;-69
2022/03/10 07:56:26;;;;;;;20.45;10.73;;;7.80;64.30;;;;;;4955113;28;20068;-69
2022/03/10 07:58:52;;;;;;;19.57;10.50;;;8.00;64.40;;;;;;4950879;28;20070;-70
2022/03/10 08:01:17;;;;;;;20.17;11.27;;;8.30;64.20;;;;;;4946880;28;20034;-70
2022/03/10 08:03:46;;;;;;;18.73;11.03;;;8.40;64.10;;;;;;4945328;28;20042;-69
2022/03/10 08:06:13;;;;;;;21.63;12.05;;;8.60;63.50;;;;;;4951426;28;20394;-69
2022/03/10 08:08:39;;;;;;;19.88;10.55;;;8.70;63.30;;;;;;4955391;28;20038;-69
2022/03/10 08:11:05;;;;;;;20.45;10.82;;;8.80;62.90;;;;;;4941927;28;20035;-70
2022/03/10 08:13:31;;;;;;;22.35;12.32;;;9.10;62.80;;;;;;4959420;28;20434;-69
2022/03/10 08:15:57;;;;;;;20.75;11.30;;;10.10;61.50;;;;;;4949877;28;20030;-69
2022/03/10 08:18:23;;;;;;;19.15;11.38;;;10.90;58.80;;;;;;4950386;28;20027;-70
2022/03/10 08:20:49;;;;;;;22.23;12.23;;;12.00;57.00;;;;;;4955327;28;20042;-70
2022/03/10 08:23:17;;;;;;;22.30;14.13;;;12.90;55.10;;;;;;4942877;28;20026;-70
2022/03/10 08:25:43;;;;;;;21.20;12.80;;;14.10;53.00;;;;;;4941960;28;20034;-70
2022/03/10 08:28:09;;;;;;;25.88;14.95;;;14.50;51.40;;;;;;4948326;28;20027;-70
2022/03/10 08:30:35;;;;;;;21.65;13.50;;;15.50;49.50;;;;;;4940257;28;20031;-70
2022/03/10 08:33:01;;;;;;;20.05;13.02;;;16.30;48.30;;;;;;4968190;28;20298;-71
2022/03/10 08:35:27;;;;;;;21.42;13.38;;;17.10;45.90;;;;;;4949116;28;20081;-71
2022/03/10 08:37:53;;;;;;;;;;;17.30;44.80;;;;;;4956809;28;20070;-70
2022/03/10 08:40:19;;;;;;;21.27;13.30;;;17.80;43.60;;;;;;4945036;28;19976;-71
2022/03/10 08:42:46;;;;;;;19.58;14.13;;;18.30;43.00;;;;;;4947629;28;20522;-71
2022/03/10 08:45:12;;;;;;;19.10;13.63;;;18.80;42.60;;;;;;4951169;28;20054;-73
2022/03/10 08:47:38;;;;;;;;;;;18.80;40.80;;;;;;4945130;28;20031;-70
2022/03/10 08:50:05;;;;;;;20.33;13.50;;;17.70;41.00;;;;;;4945956;28;20665;-70
2022/03/10 08:52:31;;;;;;;19.35;13.95;;;17.40;42.00;;;;;;4955379;28;20027;-70
2022/03/10 08:54:57;;;;;;;18.65;13.30;;;17.10;42.50;;;;;;4944819;28;20033;-71
2022/03/10 08:57:23;;;;;;;40.78;15.40;;;17.40;42.30;;;;;;4950565;28;20494;-71
2022/03/10 08:59:48;;;;;;;20.27;12.70;;;17.60;41.80;;;;;;4949575;28;20138;-70
2022/03/10 09:02:14;;;;;;;20.00;13.30;;;16.90;42.10;;;;;;4945253;28;20424;-71
2022/03/10 09:04:40;;;;;;;20.38;13.85;;;16.20;42.90;;;;;;4974187;28;20038;-69
2022/03/10 09:07:06;;;;;;;20.98;14.95;;;15.50;44.10;;;;;;4939574;28;20592;-70
2022/03/10 09:09:31;;;;;;;21.35;12.77;;;14.40;45.30;;;;;;4951842;28;20023;-70
2022/03/10 09:11:57;;;;;;;18.13;12.37;;;14.30;46.00;;;;;;4954510;28;20026;-69
2022/03/10 09:14:23;;;;;;;18.80;13.32;;;13.50;46.60;;;;;;4965957;28;20378;-69
2022/03/10 09:16:53;;;;;;;19.13;13.80;;;13.20;47.80;;;;;;4953873;28;20057;-69
2022/03/10 09:19:19;;;;;;;17.48;12.63;;;13.30;47.80;;;;;;4939628;28;20043;-70
2022/03/10 09:21:45;;;;;;;17.77;12.55;;;14.30;47.10;;;;;;4945175;28;20423;-70
2022/03/10 09:24:11;;;;;;;18.20;12.30;;;14.60;46.30;;;;;;4960514;28;20457;-70
2022/03/10 09:26:38;;;;;;;18.95;11.73;;;15.00;44.90;;;;;;4953070;28;20492;-70
2022/03/10 09:29:05;;;;;;;17.45;12.05;;;14.40;45.50;;;;;;4958760;28;20114;-70
2022/03/10 09:31:31;;;;;;;17.27;12.65;;;14.10;46.00;;;;;;4962409;28;20023;-70
2022/03/10 09:33:56;;;;;;;19.02;12.88;;;13.40;46.90;;;;;;4943507;28;20019;-69
2022/03/10 09:36:22;;;;;;;17.83;11.33;;;12.80;47.80;;;;;;4937383;28;20796;-70
2022/03/10 09:38:48;;;;;;;19.67;12.32;;;12.10;49.20;;;;;;4942389;28;20481;-69
2022/03/10 09:41:16;;;;;;;17.20;11.73;;;11.40;51.10;;;;;;4935003;28;20174;-69
2022/03/10 09:43:42;;;;;;;19.30;11.38;;;11.50;51.20;;;;;;4950781;28;20065;-69
2022/03/10 09:46:11;;;;;;;18.73;12.83;;;11.60;51.10;;;;;;4941689;28;20054;-69
2022/03/10 09:48:38;;;;;;;16.45;11.32;;;11.30;51.20;;;;;;4948827;28;20471;-69
2022/03/10 09:51:04;;;;;;;19.20;11.70;;;11.30;52.10;;;;;;4938496;28;20551;-69
2022/03/10 09:53:31;;;;;;;18.77;11.90;;;11.20;51.70;;;;;;4952989;28;20118;-69
2022/03/10 09:55:58;;;;;;;17.23;11.35;;;11.60;51.60;;;;;;4942636;28;20027;-69
2022/03/10 09:58:24;;;;;;;18.15;10.60;;;11.80;50.70;;;;;;4943386;28;20110;-69
2022/03/10 10:00:49;;;;;;;17.73;10.63;;;11.90;50.50;;;;;;4938494;28;20114;-69
2022/03/10 10:03:16;;;;;;;19.10;11.47;;;11.80;50.40;;;;;;4943946;28;20289;-69
2022/03/10 10:05:41;;;;;;;16.02;11.02;;;12.00;50.60;;;;;;4944191;28;20026;-69
2022/03/10 10:08:10;;;;;;;16.97;11.17;;;12.40;49.70;;;;;;4945143;28;20035;-69
2022/03/10 10:10:39;;;;;;;18.50;10.77;;;12.20;49.60;;;;;;4949097;28;20062;-69
2022/03/10 10:13:06;;;;;;;16.85;10.27;;;12.10;49.50;;;;;;4950766;28;20027;-69
2022/03/10 10:15:42;;;;;;;17.13;10.82;;;12.70;48.80;;;;;;4950548;28;20452;-69
2022/03/10 10:18:14;;;;;;;14.05;9.80;;;13.10;47.80;;;;;;4938758;28;20025;-70
2022/03/10 10:20:52;;;;;;;13.05;9.77;;;13.20;46.80;;;;;;4941040;28;20090;-69
2022/03/10 10:23:25;;;;;;;16.48;10.70;;;12.80;47.00;;;;;;4949108;28;20034;-69
2022/03/10 10:25:56;;;;;;;15.45;9.93;;;12.20;47.60;;;;;;4941082;28;20029;-69
2022/03/10 10:28:27;;;;;;;13.05;9.43;;;11.80;48.80;;;;;;4941509;28;20341;-69
2022/03/10 10:31:14;;;;;;;14.15;9.25;;;12.80;47.80;;;;;;4972911;28;20030;-69
2022/03/10 10:33:42;;;;;;;13.63;9.30;;;13.90;45.70;;;;;;4943700;28;20045;-70
2022/03/10 10:36:26;;;;;;;14.18;9.13;;;15.30;42.80;;;;;;4941093;28;20435;-70
2022/03/10 10:39:14;;;;;;;13.18;8.50;;;15.80;41.40;;;;;;4943870;28;20046;-69
2022/03/10 10:41:41;;;;;;;14.88;9.77;;;16.10;41.20;;;;;;4941198;28;20036;-70
2022/03/10 10:44:15;;;;;;;14.07;9.65;;;15.90;41.00;;;;;;4938277;28;20570;-70
2022/03/10 10:46:43;;;;;;;13.38;9.43;;;14.80;41.90;;;;;;4967395;28;20029;-69
2022/03/10 10:49:19;;;;;;;14.30;10.05;;;14.20;43.30;;;;;;4946317;28;20027;-69
2022/03/10 10:51:50;;;;;;;15.70;10.52;;;13.70;44.60;;;;;;4944089;28;20384;-69
2022/03/10 10:54:23;;;;;;;15.50;10.50;;;13.00;45.90;;;;;;4934509;28;20110;-69
2022/03/10 10:56:53;;;;;;;15.25;10.15;;;12.40;47.30;;;;;;4954299;28;20030;-69
2022/03/10 10:59:32;;;;;;;13.38;9.55;;;11.90;47.80;;;;;;4935670;28;20658;-69
2022/03/10 11:02:09;;;;;;;16.38;10.27;;;11.60;48.20;;;;;;4951342;28;20037;-69
2022/03/10 11:04:43;;;;;;;14.23;9.57;;;11.30;48.10;;;;;;4959441;28;20461;-69
2022/03/10 11:07:10;;;;;;;14.60;10.05;;;11.10;48.50;;;;;;4936135;28;20025;-69
2022/03/10 11:09:36;;;;;;;17.30;9.65;;;10.70;49.00;;;;;;4942937;28;20569;-70
2022/03/10 11:12:02;;;;;;;13.98;9.35;;;10.40;49.20;;;;;;4951984;28;20054;-69
2022/03/10 11:14:28;;;;;;;14.27;8.98;;;10.30;50.20;;;;;;4941111;28;20073;-69
2022/03/10 11:16:55;;;;;;;15.90;9.40;;;11.00;49.40;;;;;;4952611;28;20062;-69
2022/03/10 11:19:25;;;;;;;12.75;8.40;;;11.30;48.90;;;;;;4950272;28;20018;-69
2022/03/10 11:22:12;;;;;;;16.05;8.82;;;11.30;48.00;;;;;;4938563;28;20019;-70
2022/03/10 11:25:12;;;;;;;14.48;9.25;;;10.70;48.10;;;;;;4951425;28;20042;-69
2022/03/10 11:27:53;;;;;;;13.10;8.65;;;10.50;48.20;;;;;;4950421;28;20035;-68
2022/03/10 11:30:27;;;;;;;13.02;9.05;;;10.60;48.90;;;;;;4945639;28;21546;-69
2022/03/10 11:32:59;;;;;;;13.88;9.25;;;11.00;48.30;;;;;;4937325;28;20039;-69
2022/03/10 11:35:31;;;;;;;13.50;8.25;;;11.00;47.90;;;;;;4949685;28;20026;-70
2022/03/10 11:37:57;;;;;;;15.80;8.70;;;11.20;47.90;;;;;;4953383;28;20023;-69
2022/03/10 11:40:52;;;;;;;13.75;9.13;;;11.30;47.20;;;;;;4945668;28;20020;-69
2022/03/10 11:43:36;;;;;;;13.50;8.55;;;11.20;47.60;;;;;;4940584;28;20078;-69
2022/03/10 11:46:17;;;;;;;15.60;9.13;;;11.10;47.40;;;;;;4947234;28;20026;-69
2022/03/10 11:48:43;;;;;;;15.70;9.55;;;10.80;46.70;;;;;;4947410;28;20090;-69
2022/03/10 11:51:11;;;;;;;15.00;9.13;;;10.70;46.90;;;;;;4939733;28;20032;-69
2022/03/10 11:53:56;;;;;;;12.18;7.75;;;10.50;46.80;;;;;;4937270;28;20027;-69
2022/03/10 11:57:04;;;;;;;10.63;7.30;;;10.80;46.40;;;;;;4941796;28;20030;-69
2022/03/10 11:59:32;;;;;;;12.07;7.60;;;10.80;44.80;;;;;;4924642;28;20047;-69
2022/03/10 12:02:00;;;;;;;13.80;8.30;;;11.10;45.70;;;;;;4946306;28;20023;-69
2022/03/10 12:04:35;;;;;;;10.90;7.03;;;11.20;44.60;;;;;;4947853;28;20023;-69
2022/03/10 12:07:01;;;;;;;10.32;7.05;;;11.30;43.90;;;;;;4971111;28;20063;-69
2022/03/10 12:09:38;;;;;;;11.23;7.00;;;11.30;43.30;;;;;;4946126;28;20511;-69
2022/03/10 12:12:40;;;;;;;10.00;6.28;;;11.50;43.50;;;;;;4943362;28;20031;-70
2022/03/10 12:15:34;;;;;;;9.20;5.68;;;11.40;41.70;;;;;;4911196;28;20031;-70
2022/03/10 12:18:21;;;;;;;10.15;6.38;;;11.00;42.60;;;;;;4950435;28;20034;-70
2022/03/10 12:20:50;;;;;;;11.88;6.88;;;11.10;42.70;;;;;;4953257;28;20147;-69
2022/03/10 12:23:17;;;;;;;11.50;6.28;;;11.20;42.60;;;;;;4963073;28;20034;-70
2022/03/10 12:25:47;;;;;;;10.00;6.43;;;11.00;42.80;;;;;;4968235;28;20051;-70
2022/03/10 12:28:32;;;;;;;12.27;6.90;;;10.80;43.30;;;;;;4945580;28;20115;-70
2022/03/10 12:31:07;;;;;;;10.82;6.20;;;10.70;43.50;;;;;;4963390;28;20062;-69
2022/03/10 12:33:35;;;;;;;8.15;5.57;;;10.80;43.20;;;;;;4946385;28;20042;-69
2022/03/10 12:36:01;;;;;;;9.48;5.82;;;10.70;42.70;;;;;;4950243;28;20047;-69
2022/03/10 12:38:37;;;;;;;;;;;10.60;42.90;;;;;;4940373;28;20038;-69
2022/03/10 12:41:04;;;;;;;8.80;5.55;;;10.60;42.60;;;;;;4965151;28;20043;-69
2022/03/10 12:43:29;;;;;;;11.80;6.88;;;10.30;43.10;;;;;;4955927;28;20019;-70
2022/03/10 12:45:56;;;;;;;9.70;5.83;;;10.40;43.30;;;;;;4944802;28;20643;-70
2022/03/10 12:48:31;;;;;;;10.68;6.03;;;10.50;43.00;;;;;;4960503;28;20062;-71
2022/03/10 12:50:57;;;;;;;9.23;6.03;;;10.40;42.70;;;;;;4943930;28;20031;-69
2022/03/10 12:53:22;;;;;;;9.80;5.57;;;10.50;41.40;;;;;;4953585;28;20097;-70
2022/03/10 12:55:56;;;;;;;7.03;4.83;;;10.50;41.90;;;;;;4953949;28;20130;-69